createdAt,value
2023-02-21T00:00:39.813Z,78.61
2023-02-21T00:02:00.091Z,78.32
2023-02-21T00:03:20.299Z,77.60
2023-02-21T00:04:40.423Z,77.57
2023-02-21T00:06:00.641Z,77.21
2023-02-21T00:07:20.862Z,76.45
2023-02-21T00:08:40.737Z,76.26
2023-02-21T00:10:00.978Z,75.52
2023-02-21T00:11:22.884Z,75.39
2023-02-21T00:12:44.264Z,75.32
2023-02-21T00:14:04.424Z,75.05
2023-02-21T00:15:25.333Z,74.55
2023-02-21T00:16:45.414Z,74.50
2023-02-21T00:18:05.392Z,73.77
2023-02-21T00:19:25.576Z,73.36
2023-02-21T00:20:45.740Z,73.02
2023-02-21T00:22:06.509Z,72.80
2023-02-21T00:23:26.582Z,73.10
2023-02-21T00:24:46.657Z,72.63
2023-02-21T00:26:06.507Z,72.27
2023-02-21T00:27:26.345Z,72.16
2023-02-21T00:28:46.364Z,72.04
2023-02-21T00:30:07.444Z,71.87
2023-02-21T00:31:27.707Z,71.52
2023-02-21T00:32:47.973Z,71.29
2023-02-21T00:34:08.224Z,71.29
2023-02-21T00:35:28.675Z,71.07
2023-02-21T00:36:48.608Z,71.06
2023-02-21T00:38:09.637Z,71.02
2023-02-21T00:39:29.724Z,70.87
2023-02-21T00:40:49.687Z,70.99
2023-02-21T00:42:09.531Z,71.39
2023-02-21T00:43:29.445Z,70.98
2023-02-21T00:44:49.622Z,71.22
2023-02-21T00:46:09.599Z,70.91
2023-02-21T00:47:29.479Z,70.85
2023-02-21T00:48:49.916Z,70.74
2023-02-21T00:50:10.136Z,70.53
2023-02-21T00:51:30.531Z,70.26
2023-02-21T00:52:50.626Z,70.27
2023-02-21T00:54:10.652Z,69.55
2023-02-21T00:55:31.006Z,69.44
2023-02-21T00:56:51.051Z,69.21
2023-02-21T00:58:11.004Z,68.78
2023-02-21T00:59:30.969Z,68.47
2023-02-21T01:00:51.113Z,67.98
2023-02-21T01:02:11.019Z,67.73
2023-02-21T01:03:30.949Z,67.50
2023-02-21T01:04:50.862Z,67.12
2023-02-21T01:06:11.274Z,66.92
2023-02-21T01:07:31.404Z,67.17
2023-02-21T01:08:51.692Z,66.72
2023-02-21T01:10:11.530Z,66.43
2023-02-21T01:11:38.513Z,66.28
2023-02-21T01:12:58.676Z,66.54
2023-02-21T01:14:19.020Z,66.39
2023-02-21T01:15:39.021Z,65.90
2023-02-21T01:17:07.846Z,65.99
2023-02-21T01:18:32.884Z,65.82
2023-02-21T01:19:52.849Z,66.33
2023-02-21T01:21:13.881Z,66.20
2023-02-21T01:22:34.102Z,66.06
2023-02-21T01:23:54.256Z,65.80
2023-02-21T01:25:14.524Z,65.61
2023-02-21T01:26:34.567Z,65.22
2023-02-21T01:27:55.232Z,65.50
2023-02-21T01:29:15.332Z,65.47
2023-02-21T01:30:35.598Z,65.67
2023-02-21T01:31:55.708Z,65.51
2023-02-21T01:33:16.177Z,65.87
2023-02-21T01:34:36.394Z,65.70
2023-02-21T01:35:56.332Z,66.04
2023-02-21T01:37:16.139Z,66.21
2023-02-21T01:38:36.078Z,66.12
2023-02-21T01:39:57.902Z,66.45
2023-02-21T01:41:17.676Z,66.31
2023-02-21T01:42:37.735Z,66.95
2023-02-21T01:43:57.713Z,66.82
2023-02-21T01:45:41.118Z,66.75
2023-02-21T01:47:01.073Z,66.72
2023-02-21T01:48:20.906Z,66.69
2023-02-21T01:49:41.148Z,66.57
2023-02-21T01:51:01.156Z,66.53
2023-02-21T01:52:21.821Z,66.52
2023-02-21T01:53:43.518Z,66.36
2023-02-21T01:55:06.486Z,66.43
2023-02-21T01:56:26.460Z,66.47
2023-02-21T01:57:46.636Z,66.31
2023-02-21T01:59:07.622Z,66.14
2023-02-21T02:00:29.781Z,66.04
2023-02-21T02:02:10.002Z,65.93
2023-02-21T02:03:31.949Z,66.09
2023-02-21T02:04:52.247Z,66.07
2023-02-21T02:06:42.097Z,66.03
2023-02-21T02:08:01.922Z,65.95
2023-02-21T02:09:40.423Z,65.80
2023-02-21T02:11:01.007Z,65.80
2023-02-21T02:12:24.485Z,65.79
2023-02-21T02:13:30.279Z,65.81
2023-02-21T02:14:52.415Z,65.70
2023-02-21T02:16:32.092Z,65.98
2023-02-21T02:17:52.312Z,65.89
2023-02-21T02:18:53.914Z,65.73
2023-02-21T02:20:16.821Z,65.33
2023-02-21T02:21:43.916Z,65.37
2023-02-21T02:23:16.830Z,65.38
2023-02-21T02:24:28.711Z,65.26
2023-02-21T02:26:00.559Z,65.25
2023-02-21T02:27:24.266Z,65.07
2023-02-21T02:28:50.048Z,65.19
2023-02-21T02:29:54.682Z,65.01
2023-02-21T02:31:21.966Z,65.02
2023-02-21T02:32:42.648Z,65.06
2023-02-21T02:34:08.216Z,64.81
2023-02-21T02:35:23.263Z,64.78
2023-02-21T02:36:30.191Z,64.55
2023-02-21T02:37:45.055Z,64.68
2023-02-21T02:38:57.656Z,64.49
2023-02-21T02:40:33.282Z,64.26
2023-02-21T02:41:54.297Z,64.25
2023-02-21T02:43:12.861Z,64.19
2023-02-21T02:44:31.843Z,64.14
2023-02-21T02:45:43.336Z,64.10
2023-02-21T02:46:45.701Z,64.08
2023-02-21T02:47:50.666Z,64.05
2023-02-21T02:48:56.235Z,63.88
2023-02-21T02:49:58.504Z,64.03
2023-02-21T02:51:00.497Z,64.21
2023-02-21T02:52:05.638Z,64.03
2023-02-21T02:53:07.234Z,64.10
2023-02-21T02:54:08.916Z,64.14
2023-02-21T02:55:24.903Z,64.07
2023-02-21T02:56:28.879Z,63.92
2023-02-21T02:57:38.177Z,64.01
2023-02-21T02:58:54.586Z,63.68
2023-02-21T02:59:56.231Z,63.74
2023-02-21T03:01:31.611Z,63.37
2023-02-21T03:02:33.201Z,63.26
2023-02-21T03:03:52.115Z,62.96
2023-02-21T03:05:05.584Z,62.83
2023-02-21T03:06:19.651Z,62.55
2023-02-21T03:07:59.017Z,62.45
2023-02-21T03:09:09.620Z,62.21
2023-02-21T03:10:35.602Z,62.10
2023-02-21T03:11:38.969Z,62.27
2023-02-21T03:12:52.322Z,62.45
2023-02-21T03:14:09.646Z,62.38
2023-02-21T03:15:29.188Z,62.55
2023-02-21T03:16:37.980Z,62.53
2023-02-21T03:17:41.397Z,62.60
2023-02-21T03:18:45.979Z,62.80
2023-02-21T03:19:47.679Z,62.89
2023-02-21T03:20:52.298Z,62.79
2023-02-21T03:21:59.364Z,63.02
2023-02-21T03:23:01.092Z,63.03
2023-02-21T03:24:04.964Z,63.04
2023-02-21T03:25:06.771Z,63.21
2023-02-21T03:26:09.131Z,63.06
2023-02-21T03:27:10.788Z,63.48
2023-02-21T03:28:12.552Z,63.54
2023-02-21T03:29:14.728Z,63.66
2023-02-21T03:30:16.394Z,63.65
2023-02-21T03:31:20.770Z,63.76
2023-02-21T03:32:25.348Z,63.77
2023-02-21T03:33:26.937Z,63.84
2023-02-21T03:34:28.559Z,63.97
2023-02-21T03:35:30.474Z,63.88
2023-02-21T03:36:32.646Z,64.11
2023-02-21T03:37:36.696Z,64.20
2023-02-21T03:38:38.467Z,64.00
2023-02-21T03:39:40.213Z,64.20
2023-02-21T03:40:41.825Z,64.31
2023-02-21T03:41:43.457Z,64.21
2023-02-21T03:42:45.193Z,64.38
2023-02-21T03:43:46.792Z,64.32
2023-02-21T03:44:48.507Z,64.14
2023-02-21T03:45:50.120Z,63.96
2023-02-21T03:46:51.850Z,63.99
2023-02-21T03:47:53.449Z,63.78
2023-02-21T03:48:55.121Z,63.63
2023-02-21T03:49:56.702Z,63.59
2023-02-21T03:50:59.176Z,63.20
2023-02-21T03:52:00.800Z,62.97
2023-02-21T03:53:02.587Z,62.91
2023-02-21T03:54:04.299Z,62.72
2023-02-21T03:55:06.894Z,62.54
2023-02-21T03:56:08.591Z,62.53
2023-02-21T03:57:10.321Z,62.55
2023-02-21T03:58:11.978Z,62.34
2023-02-21T03:59:13.609Z,62.24
2023-02-21T04:00:15.560Z,61.98
2023-02-21T04:01:17.586Z,62.08
2023-02-21T04:02:19.436Z,61.88
2023-02-21T04:03:21.267Z,61.84
2023-02-21T04:04:23.069Z,61.82
2023-02-21T04:05:24.685Z,61.59
2023-02-21T04:06:26.288Z,61.68
2023-02-21T04:07:28.072Z,61.50
2023-02-21T04:08:29.739Z,61.35
2023-02-21T04:09:31.337Z,61.56
2023-02-21T04:10:35.906Z,61.65
2023-02-21T04:11:43.674Z,61.68
2023-02-21T04:12:45.304Z,61.27
2023-02-21T04:13:46.915Z,61.36
2023-02-21T04:14:48.516Z,61.50
2023-02-21T04:15:50.282Z,61.54
2023-02-21T04:16:51.925Z,61.68
2023-02-21T04:17:53.533Z,61.43
2023-02-21T04:18:55.260Z,61.60
2023-02-21T04:19:56.857Z,61.66
2023-02-21T04:20:58.515Z,61.57
2023-02-21T04:22:00.163Z,61.60
2023-02-21T04:23:03.777Z,61.50
2023-02-21T04:24:05.659Z,61.95
2023-02-21T04:25:08.095Z,61.68
2023-02-21T04:26:09.691Z,61.78
2023-02-21T04:27:11.362Z,61.55
2023-02-21T04:28:12.942Z,61.57
2023-02-21T04:29:14.560Z,61.19
2023-02-21T04:30:16.343Z,61.48
2023-02-21T04:31:18.291Z,61.38
2023-02-21T04:32:20.166Z,61.26
2023-02-21T04:33:21.840Z,60.94
2023-02-21T04:34:23.439Z,61.12
2023-02-21T04:35:25.110Z,61.17
2023-02-21T04:36:26.988Z,61.17
2023-02-21T04:37:28.593Z,60.91
2023-02-21T04:38:30.236Z,61.01
2023-02-21T04:39:31.856Z,60.62
2023-02-21T04:40:33.442Z,60.25
2023-02-21T04:41:35.262Z,60.33
2023-02-21T04:42:36.891Z,60.35
2023-02-21T04:43:38.595Z,60.01
2023-02-21T04:44:41.537Z,60.13
2023-02-21T04:45:44.534Z,59.44
2023-02-21T04:46:46.180Z,59.80
2023-02-21T04:47:47.811Z,59.54
2023-02-21T04:48:50.821Z,59.70
2023-02-21T04:49:52.671Z,59.44
2023-02-21T04:50:57.292Z,59.49
2023-02-21T04:52:00.854Z,59.75
2023-02-21T04:53:02.489Z,59.75
2023-02-21T04:54:04.231Z,59.79
2023-02-21T04:55:06.388Z,59.87
2023-02-21T04:56:08.005Z,59.97
2023-02-21T04:57:09.597Z,59.96
2023-02-21T04:58:11.272Z,59.95
2023-02-21T04:59:12.939Z,59.95
2023-02-21T05:00:15.703Z,60.00
2023-02-21T05:01:18.191Z,60.14
2023-02-21T05:02:19.853Z,60.09
2023-02-21T05:03:22.076Z,60.22
2023-02-21T05:04:23.766Z,60.49
2023-02-21T05:05:25.521Z,60.45
2023-02-21T05:06:28.128Z,60.61
2023-02-21T05:07:29.770Z,60.55
2023-02-21T05:08:31.360Z,60.62
2023-02-21T05:09:32.952Z,60.68
2023-02-21T05:10:45.245Z,60.80
2023-02-21T05:11:47.440Z,60.81
2023-02-21T05:12:49.105Z,60.98
2023-02-21T05:13:50.696Z,61.16
2023-02-21T05:14:52.333Z,61.33
2023-02-21T05:15:53.953Z,61.29
2023-02-21T05:16:55.721Z,61.32
2023-02-21T05:17:57.290Z,61.50
2023-02-21T05:18:58.894Z,61.37
2023-02-21T05:20:00.861Z,61.45
2023-02-21T05:21:03.453Z,61.47
2023-02-21T05:22:07.536Z,61.48
2023-02-21T05:23:13.684Z,61.84
2023-02-21T05:24:15.733Z,61.81
2023-02-21T05:25:23.940Z,61.75
2023-02-21T05:26:27.552Z,61.79
2023-02-21T05:27:29.233Z,61.89
2023-02-21T05:28:30.844Z,62.21
2023-02-21T05:29:32.434Z,62.22
2023-02-21T05:30:34.193Z,62.24
2023-02-21T05:31:36.033Z,62.32
2023-02-21T05:32:37.689Z,62.28
2023-02-21T05:33:39.286Z,62.13
2023-02-21T05:34:44.507Z,62.08
2023-02-21T05:35:47.948Z,61.96
2023-02-21T05:36:49.825Z,61.96
2023-02-21T05:37:51.652Z,61.76
2023-02-21T05:38:54.465Z,61.88
2023-02-21T05:39:56.157Z,61.72
2023-02-21T05:40:57.759Z,61.78
2023-02-21T05:41:59.393Z,61.75
2023-02-21T05:43:00.985Z,61.92
2023-02-21T05:44:02.881Z,61.91
2023-02-21T05:45:06.943Z,62.30
2023-02-21T05:46:08.574Z,62.47
2023-02-21T05:47:11.269Z,63.00
2023-02-21T05:48:12.944Z,63.16
2023-02-21T05:49:14.530Z,63.03
2023-02-21T05:50:16.267Z,63.49
2023-02-21T05:51:17.944Z,63.30
2023-02-21T05:52:19.648Z,63.47
2023-02-21T05:53:21.251Z,63.83
2023-02-21T05:54:22.873Z,63.71
2023-02-21T05:55:24.506Z,63.56
2023-02-21T05:56:26.112Z,63.51
2023-02-21T05:57:27.807Z,63.50
2023-02-21T05:58:29.398Z,63.66
2023-02-21T05:59:31.020Z,63.73
2023-02-21T06:00:32.639Z,63.62
2023-02-21T06:01:34.436Z,63.61
2023-02-21T06:02:36.132Z,63.87
2023-02-21T06:03:37.922Z,63.97
2023-02-21T06:04:39.626Z,64.02
2023-02-21T06:05:41.260Z,63.91
2023-02-21T06:06:43.035Z,64.09
2023-02-21T06:07:44.863Z,64.17
2023-02-21T06:08:47.459Z,64.08
2023-02-21T06:09:49.156Z,64.33
2023-02-21T06:10:50.829Z,64.11
2023-02-21T06:11:55.551Z,63.98
2023-02-21T06:12:57.195Z,63.70
2023-02-21T06:13:59.658Z,63.44
2023-02-21T06:15:01.403Z,63.03
2023-02-21T06:16:03.124Z,62.44
2023-02-21T06:17:04.740Z,62.11
2023-02-21T06:18:06.339Z,61.47
2023-02-21T06:19:08.764Z,60.75
2023-02-21T06:20:12.755Z,60.23
2023-02-21T06:21:14.736Z,59.58
2023-02-21T06:22:17.101Z,59.31
2023-02-21T06:23:18.718Z,59.39
2023-02-21T06:24:20.389Z,58.94
2023-02-21T06:25:21.989Z,58.87
2023-02-21T06:26:23.665Z,59.19
2023-02-21T06:27:25.368Z,59.48
2023-02-21T06:28:30.582Z,59.91
2023-02-21T06:29:32.272Z,59.80
2023-02-21T06:30:33.975Z,59.80
2023-02-21T06:31:36.431Z,60.06
2023-02-21T06:32:38.173Z,60.15
2023-02-21T06:33:39.955Z,60.46
2023-02-21T06:34:43.256Z,59.96
2023-02-21T06:35:44.891Z,60.16
2023-02-21T06:36:46.512Z,59.97
2023-02-21T06:37:48.098Z,60.14
2023-02-21T06:38:51.423Z,59.88
2023-02-21T06:39:53.157Z,60.16
2023-02-21T06:40:54.776Z,60.48
2023-02-21T06:41:56.395Z,60.31
2023-02-21T06:42:58.073Z,60.49
2023-02-21T06:43:59.764Z,60.42
2023-02-21T06:45:01.354Z,60.26
2023-02-21T06:46:04.664Z,60.11
2023-02-21T06:47:06.483Z,60.47
2023-02-21T06:48:08.929Z,60.39
2023-02-21T06:49:10.661Z,60.26
2023-02-21T06:50:12.290Z,60.28
2023-02-21T06:51:14.910Z,60.01
2023-02-21T06:52:16.729Z,60.33
2023-02-21T06:53:18.344Z,59.98
2023-02-21T06:54:20.260Z,60.14
2023-02-21T06:55:25.021Z,60.01
2023-02-21T06:56:27.350Z,60.24
2023-02-21T06:57:29.012Z,59.94
2023-02-21T06:58:30.609Z,59.55
2023-02-21T06:59:32.354Z,59.84
2023-02-21T07:00:34.030Z,59.52
2023-02-21T07:01:35.809Z,59.60
2023-02-21T07:02:38.831Z,59.80
2023-02-21T07:03:43.241Z,59.55
2023-02-21T07:04:46.198Z,59.68
2023-02-21T07:05:47.915Z,59.71
2023-02-21T07:06:49.682Z,59.39
2023-02-21T07:07:51.281Z,59.29
2023-02-21T07:08:52.894Z,59.21
2023-02-21T07:09:54.634Z,59.29
2023-02-21T07:10:56.255Z,59.59
2023-02-21T07:11:57.871Z,59.16
2023-02-21T07:12:59.785Z,59.03
2023-02-21T07:14:01.441Z,59.09
2023-02-21T07:15:03.675Z,59.24
2023-02-21T07:16:05.869Z,58.90
2023-02-21T07:17:07.520Z,58.93
2023-02-21T07:18:09.180Z,58.94
2023-02-21T07:20:17.716Z,58.59
2023-02-21T07:21:20.319Z,58.81
2023-02-21T07:22:26.184Z,58.25
2023-02-21T07:23:27.791Z,58.56
2023-02-21T07:24:29.430Z,58.65
2023-02-21T07:25:31.446Z,58.66
2023-02-21T07:26:33.106Z,58.75
2023-02-21T07:27:38.004Z,58.53
2023-02-21T07:28:39.660Z,58.58
2023-02-21T07:29:41.264Z,58.96
2023-02-21T07:30:42.994Z,58.85
2023-02-21T07:31:44.869Z,58.40
2023-02-21T07:32:46.784Z,58.70
2023-02-21T07:33:48.423Z,58.71
2023-02-21T07:34:50.110Z,58.74
2023-02-21T07:35:51.706Z,59.02
2023-02-21T07:36:53.307Z,58.94
2023-02-21T07:37:54.934Z,58.92
2023-02-21T07:38:56.546Z,59.01
2023-02-21T07:39:58.244Z,58.90
2023-02-21T07:41:01.127Z,59.04
2023-02-21T07:42:02.725Z,58.81
2023-02-21T07:43:04.303Z,58.89
2023-02-21T07:44:06.072Z,58.88
2023-02-21T07:45:07.764Z,58.73
2023-02-21T07:46:11.393Z,58.67
2023-02-21T07:47:13.003Z,58.75
2023-02-21T07:48:14.718Z,58.97
2023-02-21T07:49:16.341Z,58.84
2023-02-21T07:50:18.101Z,58.55
2023-02-21T07:51:19.799Z,58.57
2023-02-21T07:52:22.107Z,58.65
2023-02-21T07:53:23.749Z,58.69
2023-02-21T07:54:25.428Z,58.69
2023-02-21T07:55:27.093Z,58.35
2023-02-21T07:56:28.698Z,58.75
2023-02-21T07:57:30.353Z,58.44
2023-02-21T07:58:32.620Z,58.88
2023-02-21T07:59:34.249Z,58.97
2023-02-21T08:00:36.813Z,59.06
2023-02-21T08:01:39.820Z,58.34
2023-02-21T08:02:41.476Z,58.69
2023-02-21T08:03:43.152Z,58.90
2023-02-21T08:04:44.776Z,58.36
2023-02-21T08:05:47.010Z,58.63
2023-02-21T08:06:49.469Z,59.02
2023-02-21T08:07:51.214Z,58.77
2023-02-21T08:08:52.888Z,57.90
2023-02-21T08:09:54.509Z,58.31
2023-02-21T08:10:56.124Z,57.95
2023-02-21T08:11:57.752Z,58.27
2023-02-21T08:12:59.420Z,58.10
2023-02-21T08:14:01.109Z,58.25
2023-02-21T08:15:03.336Z,58.33
2023-02-21T08:16:05.212Z,58.40
2023-02-21T08:17:06.860Z,58.17
2023-02-21T08:18:19.359Z,58.89
2023-02-21T08:19:21.087Z,59.17
2023-02-21T08:20:22.763Z,58.90
2023-02-21T08:21:24.638Z,58.45
2023-02-21T08:22:26.271Z,57.86
2023-02-21T08:23:27.954Z,57.88
2023-02-21T08:24:29.550Z,58.11
2023-02-21T08:25:31.153Z,57.93
2023-02-21T08:26:32.784Z,57.99
2023-02-21T08:27:34.403Z,57.69
2023-02-21T08:28:37.454Z,57.53
2023-02-21T08:29:40.728Z,57.33
2023-02-21T08:30:42.422Z,57.49
2023-02-21T08:31:44.861Z,57.02
2023-02-21T08:32:48.285Z,56.96
2023-02-21T08:33:49.906Z,56.79
2023-02-21T08:34:51.568Z,57.27
2023-02-21T08:35:53.231Z,57.11
2023-02-21T08:36:55.284Z,56.80
2023-02-21T08:37:56.917Z,56.99
2023-02-21T08:38:58.555Z,56.39
2023-02-21T08:40:00.246Z,56.31
2023-02-21T08:41:02.968Z,56.51
2023-02-21T08:42:04.933Z,56.59
2023-02-21T08:43:06.580Z,56.69
2023-02-21T08:44:08.727Z,56.56
2023-02-21T08:45:15.065Z,56.88
2023-02-21T08:46:16.730Z,56.81
2023-02-21T08:47:18.478Z,56.91
2023-02-21T08:48:20.092Z,56.80
2023-02-21T08:49:21.822Z,56.53
2023-02-21T08:50:24.239Z,57.00
2023-02-21T08:51:26.757Z,56.45
2023-02-21T08:52:28.363Z,56.59
2023-02-21T08:53:29.991Z,56.68
2023-02-21T08:54:31.617Z,56.63
2023-02-21T08:55:33.317Z,56.53
2023-02-21T08:56:35.014Z,57.12
2023-02-21T08:57:36.707Z,57.14
2023-02-21T08:58:38.379Z,57.06
2023-02-21T08:59:43.250Z,57.18
2023-02-21T09:00:44.936Z,56.95
2023-02-21T09:01:46.830Z,56.60
2023-02-21T09:02:49.684Z,56.65
2023-02-21T09:03:51.354Z,56.65
2023-02-21T09:04:53.102Z,56.77
2023-02-21T09:05:54.691Z,57.11
2023-02-21T09:06:56.545Z,57.05
2023-02-21T09:07:59.727Z,56.94
2023-02-21T09:09:01.340Z,57.90
2023-02-21T09:10:03.017Z,57.37
2023-02-21T09:11:04.954Z,57.61
2023-02-21T09:12:10.172Z,57.25
2023-02-21T09:13:11.896Z,56.54
2023-02-21T09:14:13.526Z,57.09
2023-02-21T09:15:15.736Z,57.11
2023-02-21T09:16:17.378Z,57.05
2023-02-21T09:17:19.104Z,56.59
2023-02-21T09:18:20.851Z,57.13
2023-02-21T09:19:22.453Z,57.50
2023-02-21T09:20:25.415Z,58.00
2023-02-21T09:21:28.595Z,57.93
2023-02-21T09:22:31.628Z,57.14
2023-02-21T09:23:33.344Z,57.11
2023-02-21T09:24:35.037Z,56.57
2023-02-21T09:25:36.721Z,56.93
2023-02-21T09:26:38.509Z,56.76
2023-02-21T09:27:40.548Z,56.77
2023-02-21T09:28:43.870Z,57.67
2023-02-21T09:29:47.314Z,57.70
2023-02-21T09:30:49.132Z,58.01
2023-02-21T09:31:50.922Z,57.84
2023-02-21T09:32:52.760Z,57.94
2023-02-21T09:33:54.406Z,57.27
2023-02-21T09:34:56.016Z,57.24
2023-02-21T09:35:57.617Z,57.00
2023-02-21T09:36:59.847Z,56.93
2023-02-21T09:38:01.725Z,56.83
2023-02-21T09:39:06.723Z,57.08
2023-02-21T09:40:15.627Z,57.56
2023-02-21T09:41:18.076Z,57.32
2023-02-21T09:42:20.002Z,56.28
2023-02-21T09:43:27.246Z,56.94
2023-02-21T09:44:28.975Z,56.88
2023-02-21T09:45:34.618Z,57.39
2023-02-21T09:46:40.417Z,57.18
2023-02-21T09:47:42.027Z,57.06
2023-02-21T09:48:43.856Z,57.44
2023-02-21T09:49:45.461Z,57.69
2023-02-21T09:50:49.262Z,57.79
2023-02-21T09:51:51.171Z,57.41
2023-02-21T09:52:52.779Z,57.60
2023-02-21T09:53:55.834Z,57.47
2023-02-21T09:54:58.215Z,57.83
2023-02-21T09:56:02.555Z,57.53
2023-02-21T09:57:05.650Z,57.36
2023-02-21T09:58:14.862Z,57.63
2023-02-21T09:59:16.591Z,58.12
2023-02-21T10:00:22.716Z,57.70
2023-02-21T10:02:01.622Z,57.31
2023-02-21T10:03:11.160Z,57.77
2023-02-21T10:04:40.527Z,57.78
2023-02-21T10:05:59.875Z,57.93
2023-02-21T10:07:41.399Z,58.42
2023-02-21T10:09:03.506Z,57.69
2023-02-21T10:10:24.297Z,57.81
2023-02-21T10:11:41.246Z,58.27
2023-02-21T10:12:54.829Z,58.02
2023-02-21T10:14:35.194Z,57.44
2023-02-21T10:15:45.508Z,57.51
2023-02-21T10:17:21.626Z,58.21
2023-02-21T10:18:35.276Z,58.22
2023-02-21T10:19:39.248Z,58.05
2023-02-21T10:20:47.716Z,58.24
2023-02-21T10:21:49.719Z,58.76
2023-02-21T10:22:51.340Z,58.44
2023-02-21T10:23:54.550Z,58.30
2023-02-21T10:24:56.267Z,57.37
2023-02-21T10:26:02.777Z,57.78
2023-02-21T10:27:08.980Z,57.19
2023-02-21T10:28:17.616Z,56.98
2023-02-21T10:29:27.249Z,57.16
2023-02-21T10:30:36.174Z,57.64
2023-02-21T10:31:39.734Z,57.84
2023-02-21T10:32:41.580Z,57.91
2023-02-21T10:33:43.182Z,58.05
2023-02-21T10:34:47.302Z,57.80
2023-02-21T10:35:49.023Z,57.45
2023-02-21T10:36:50.744Z,57.30
2023-02-21T10:37:56.984Z,57.37
2023-02-21T10:39:15.102Z,57.32
2023-02-21T10:40:28.468Z,57.60
2023-02-21T10:41:31.286Z,57.44
2023-02-21T10:42:49.571Z,58.04
2023-02-21T10:43:58.161Z,57.52
2023-02-21T10:44:59.824Z,57.73
2023-02-21T10:46:21.365Z,57.93
2023-02-21T10:47:26.665Z,57.88
2023-02-21T10:48:31.375Z,58.06
2023-02-21T10:49:36.690Z,57.96
2023-02-21T10:50:40.587Z,57.21
2023-02-21T10:51:42.765Z,57.53
2023-02-21T10:52:49.088Z,57.89
2023-02-21T10:53:52.811Z,57.41
2023-02-21T10:55:30.102Z,57.19
2023-02-21T10:56:33.703Z,58.04
2023-02-21T10:57:39.506Z,57.93
2023-02-21T10:59:07.429Z,57.95
2023-02-21T11:00:10.636Z,57.95
2023-02-21T11:01:30.388Z,57.86
2023-02-21T11:02:40.348Z,58.26
2023-02-21T11:03:55.348Z,58.07
2023-02-21T11:04:57.270Z,58.12
2023-02-21T11:05:59.032Z,58.21
2023-02-21T11:07:05.366Z,58.62
2023-02-21T11:08:09.024Z,58.51
2023-02-21T11:09:30.920Z,58.93
2023-02-21T11:10:37.842Z,58.57
2023-02-21T11:11:40.978Z,58.65
2023-02-21T11:12:42.617Z,58.72
2023-02-21T11:13:45.232Z,58.87
2023-02-21T11:14:52.654Z,58.67
2023-02-21T11:16:17.140Z,58.34
2023-02-21T11:17:22.232Z,58.88
2023-02-21T11:18:25.219Z,58.83
2023-02-21T11:19:26.835Z,58.60
2023-02-21T11:20:28.454Z,57.88
2023-02-21T11:21:30.251Z,58.18
2023-02-21T11:22:35.282Z,57.65
2023-02-21T11:23:37.061Z,57.29
2023-02-21T11:25:24.565Z,57.91
2023-02-21T11:26:26.232Z,57.71
2023-02-21T11:27:29.021Z,57.85
2023-02-21T11:28:30.643Z,58.43
2023-02-21T11:29:32.242Z,58.02
2023-02-21T11:31:04.670Z,58.37
2023-02-21T11:32:13.129Z,58.64
2023-02-21T11:33:14.759Z,57.68
2023-02-21T11:34:16.353Z,58.01
2023-02-21T11:35:20.767Z,58.41
2023-02-21T11:36:22.567Z,58.40
2023-02-21T11:37:24.232Z,58.36
2023-02-21T11:38:37.693Z,59.13
2023-02-21T11:39:40.132Z,58.81
2023-02-21T11:40:47.209Z,58.37
2023-02-21T11:41:52.813Z,58.83
2023-02-21T11:43:11.482Z,58.91
2023-02-21T11:44:27.606Z,59.17
2023-02-21T11:45:29.798Z,58.64
2023-02-21T11:46:36.431Z,58.34
2023-02-21T11:47:49.580Z,59.15
2023-02-21T11:49:02.072Z,59.31
2023-02-21T11:50:31.049Z,59.45
2023-02-21T11:51:46.376Z,58.48
2023-02-21T11:53:27.969Z,58.96
2023-02-21T11:54:30.494Z,59.66
2023-02-21T11:55:32.114Z,59.34
2023-02-21T11:56:42.859Z,59.06
2023-02-21T11:58:12.305Z,59.29
2023-02-21T11:59:23.362Z,59.86
2023-02-21T12:00:33.954Z,59.82
2023-02-21T12:01:58.919Z,59.41
2023-02-21T12:03:33.126Z,59.93
2023-02-21T12:04:44.013Z,59.52
2023-02-21T12:06:01.079Z,58.96
2023-02-21T12:07:08.278Z,59.41
2023-02-21T12:08:37.284Z,59.25
2023-02-21T12:09:45.731Z,60.15
2023-02-21T12:10:59.194Z,59.09
2023-02-21T12:12:25.487Z,59.53
2023-02-21T12:13:50.129Z,59.79
2023-02-21T12:15:06.426Z,59.94
2023-02-21T12:16:23.798Z,59.77
2023-02-21T12:17:47.213Z,59.90
2023-02-21T12:19:16.430Z,58.70
2023-02-21T12:20:38.642Z,58.79
2023-02-21T12:21:58.980Z,59.62
2023-02-21T12:23:12.907Z,60.13
2023-02-21T12:24:14.589Z,59.37
2023-02-21T12:25:33.701Z,59.35
2023-02-21T12:26:46.838Z,59.57
2023-02-21T12:28:13.805Z,59.26
2023-02-21T12:29:21.530Z,59.13
2023-02-21T12:30:27.652Z,59.09
2023-02-21T12:31:52.813Z,59.13
2023-02-21T12:33:18.973Z,59.79
2023-02-21T12:34:45.004Z,59.75
2023-02-21T12:36:24.289Z,59.80
2023-02-21T12:37:41.740Z,59.50
2023-02-21T12:38:46.269Z,59.64
2023-02-21T12:39:54.531Z,60.17
2023-02-21T12:41:12.738Z,59.60
2023-02-21T12:42:18.582Z,59.43
2023-02-21T12:43:58.691Z,59.62
2023-02-21T12:45:06.556Z,59.20
2023-02-21T12:46:14.148Z,59.09
2023-02-21T12:47:20.405Z,59.33
2023-02-21T12:49:00.628Z,59.75
2023-02-21T12:50:41.584Z,59.56
2023-02-21T12:51:50.634Z,59.30
2023-02-21T12:53:16.617Z,59.89
2023-02-21T12:54:36.037Z,59.47
2023-02-21T12:55:48.132Z,59.92
2023-02-21T12:56:52.444Z,59.75
2023-02-21T12:58:06.086Z,60.82
2023-02-21T12:59:28.487Z,60.00
2023-02-21T13:00:41.338Z,59.78
2023-02-21T13:02:30.979Z,60.14
2023-02-21T13:03:51.826Z,60.28
2023-02-21T13:04:56.576Z,60.65
2023-02-21T13:06:21.271Z,60.61
2023-02-21T13:07:45.389Z,60.07
2023-02-21T13:08:55.724Z,59.77
2023-02-21T13:10:12.472Z,59.92
2023-02-21T13:11:22.401Z,60.00
2023-02-21T13:12:51.487Z,60.34
2023-02-21T13:13:53.064Z,60.16
2023-02-21T13:14:56.615Z,60.00
2023-02-21T13:15:59.286Z,60.38
2023-02-21T13:17:01.009Z,59.89
2023-02-21T13:18:10.697Z,59.33
2023-02-21T13:19:12.702Z,59.39
2023-02-21T13:20:19.988Z,60.10
2023-02-21T13:21:54.372Z,60.11
2023-02-21T13:23:14.542Z,59.90
2023-02-21T13:24:40.834Z,60.95
2023-02-21T13:25:54.486Z,60.80
2023-02-21T13:27:03.668Z,60.42
2023-02-21T13:28:07.304Z,60.04
2023-02-21T13:29:29.201Z,60.40
2023-02-21T13:30:40.870Z,60.38
2023-02-21T13:31:42.815Z,60.42
2023-02-21T13:32:52.091Z,60.70
2023-02-21T13:33:57.917Z,60.44
2023-02-21T13:35:00.512Z,60.84
2023-02-21T13:36:02.201Z,60.76
2023-02-21T13:37:06.509Z,60.78
2023-02-21T13:38:10.611Z,60.62
2023-02-21T13:39:17.259Z,60.80
2023-02-21T13:40:24.694Z,60.63
2023-02-21T13:41:28.640Z,60.61
2023-02-21T13:42:30.248Z,60.64
2023-02-21T13:43:33.405Z,60.84
2023-02-21T13:44:42.752Z,61.08
2023-02-21T13:45:45.722Z,61.41
2023-02-21T13:46:47.351Z,61.09
2023-02-21T13:47:58.392Z,60.92
2023-02-21T13:49:37.222Z,60.84
2023-02-21T13:50:39.216Z,59.47
2023-02-21T13:51:48.291Z,59.86
2023-02-21T13:53:02.595Z,59.83
2023-02-21T13:54:13.121Z,60.36
2023-02-21T13:55:21.336Z,60.13
2023-02-21T13:56:39.891Z,60.41
2023-02-21T13:57:57.522Z,60.91
2023-02-21T13:59:26.151Z,61.06
2023-02-21T14:00:27.871Z,61.08
2023-02-21T14:01:30.033Z,60.93
2023-02-21T14:02:32.992Z,61.05
2023-02-21T14:03:34.741Z,61.20
2023-02-21T14:05:04.500Z,61.22
2023-02-21T14:06:09.182Z,61.70
2023-02-21T14:07:10.927Z,61.24
2023-02-21T14:08:43.857Z,61.49
2023-02-21T14:09:45.468Z,61.34
2023-02-21T14:10:50.793Z,60.96
2023-02-21T14:11:54.263Z,60.90
2023-02-21T14:13:01.049Z,60.69
2023-02-21T14:14:05.234Z,60.87
2023-02-21T14:15:07.360Z,60.76
2023-02-21T14:16:11.753Z,60.78
2023-02-21T14:17:13.938Z,60.44
2023-02-21T14:18:26.416Z,60.10
2023-02-21T14:19:30.878Z,60.29
2023-02-21T14:20:32.496Z,60.54
2023-02-21T14:21:48.846Z,60.77
2023-02-21T14:22:53.946Z,60.47
2023-02-21T14:24:00.918Z,60.83
2023-02-21T14:25:18.765Z,61.11
2023-02-21T14:26:44.406Z,60.13
2023-02-21T14:27:46.052Z,60.52
2023-02-21T14:29:00.837Z,60.43
2023-02-21T14:30:02.424Z,60.58
2023-02-21T14:31:04.069Z,60.76
2023-02-21T14:32:08.689Z,61.05
2023-02-21T14:33:19.201Z,61.18
2023-02-21T14:34:41.465Z,61.54
2023-02-21T14:35:50.915Z,60.77
2023-02-21T14:36:52.568Z,60.50
2023-02-21T14:37:57.560Z,60.50
2023-02-21T14:38:59.325Z,60.28
2023-02-21T14:40:10.516Z,60.22
2023-02-21T14:41:18.625Z,60.50
2023-02-21T14:42:46.904Z,60.64
2023-02-21T14:43:58.894Z,60.34